sensor_id;sensor_type;location;lat;lon;timestamp;pressure;altitude;pressure_sealevel;temperature;humidity
81319;BME280;70784;48.420;14.830;2023-08-06T00:01:51;97240.50;;;14.67;100.00
81319;BME280;70784;48.420;14.830;2023-08-06T00:04:35;97246.94;;;14.65;100.00
81319;BME280;70784;48.420;14.830;2023-08-06T00:07:20;97243.31;;;14.66;100.00
81319;BME280;70784;48.420;14.830;2023-08-06T00:10:05;97253.78;;;14.66;100.00
81319;BME280;70784;48.420;14.830;2023-08-06T00:12:49;97240.31;;;14.69;100.00
81319;BME280;70784;48.420;14.830;2023-08-06T00:15:34;97245.13;;;14.65;100.00
81319;BME280;70784;48.420;14.830;2023-08-06T00:18:18;97238.09;;;14.66;100.00
81319;BME280;70784;48.420;14.830;2023-08-06T00:21:02;97234.88;;;14.64;100.00
81319;BME280;70784;48.420;14.830;2023-08-06T00:23:47;97232.47;;;14.56;100.00
81319;BME280;70784;48.420;14.830;2023-08-06T00:26:31;97233.47;;;14.55;100.00
81319;BME280;70784;48.420;14.830;2023-08-06T00:29:16;97236.09;;;14.61;100.00
81319;BME280;70784;48.420;14.830;2023-08-06T00:32:00;97238.50;;;14.63;100.00
81319;BME280;70784;48.420;14.830;2023-08-06T00:34:45;97223.81;;;14.62;100.00
81319;BME280;70784;48.420;14.830;2023-08-06T00:37:29;97235.66;;;14.58;100.00
81319;BME280;70784;48.420;14.830;2023-08-06T00:40:14;97232.25;;;14.57;100.00
81319;BME280;70784;48.420;14.830;2023-08-06T00:42:58;97227.81;;;14.58;100.00
81319;BME280;70784;48.420;14.830;2023-08-06T00:45:43;97224.81;;;14.54;100.00
81319;BME280;70784;48.420;14.830;2023-08-06T00:48:27;97222.41;;;14.53;100.00
81319;BME280;70784;48.420;14.830;2023-08-06T00:51:13;97220.78;;;14.52;100.00
81319;BME280;70784;48.420;14.830;2023-08-06T00:53:58;97215.94;;;14.49;100.00
81319;BME280;70784;48.420;14.830;2023-08-06T00:56:43;97207.91;;;14.50;100.00
81319;BME280;70784;48.420;14.830;2023-08-06T00:59:28;97212.31;;;14.50;100.00
81319;BME280;70784;48.420;14.830;2023-08-06T01:02:14;97204.28;;;14.45;100.00
81319;BME280;70784;48.420;14.830;2023-08-06T01:04:58;97201.66;;;14.45;100.00
81319;BME280;70784;48.420;14.830;2023-08-06T01:08:00;97200.06;;;14.43;100.00
81319;BME280;70784;48.420;14.830;2023-08-06T01:16:23;97190.41;;;14.44;100.00
81319;BME280;70784;48.420;14.830;2023-08-06T01:19:18;97179.31;;;14.49;100.00
81319;BME280;70784;48.420;14.830;2023-08-06T01:22:03;97174.53;;;14.39;100.00
81319;BME280;70784;48.420;14.830;2023-08-06T01:24:49;97185.38;;;14.42;100.00
81319;BME280;70784;48.420;14.830;2023-08-06T01:27:45;97185.38;;;14.42;100.00
81319;BME280;70784;48.420;14.830;2023-08-06T01:30:31;97192.63;;;14.47;100.00
81319;BME280;70784;48.420;14.830;2023-08-06T01:33:21;97186.97;;;14.43;100.00
81319;BME280;70784;48.420;14.830;2023-08-06T01:36:06;97180.56;;;14.46;100.00
81319;BME280;70784;48.420;14.830;2023-08-06T01:38:52;97186.38;;;14.41;100.00
81319;BME280;70784;48.420;14.830;2023-08-06T01:41:37;97183.75;;;14.41;100.00
81319;BME280;70784;48.420;14.830;2023-08-06T01:44:22;97176.91;;;14.40;100.00
81319;BME280;70784;48.420;14.830;2023-08-06T01:47:06;97171.09;;;14.38;100.00
81319;BME280;70784;48.420;14.830;2023-08-06T01:49:50;97177.50;;;14.36;100.00
81319;BME280;70784;48.420;14.830;2023-08-06T01:52:35;97174.09;;;14.42;100.00
81319;BME280;70784;48.420;14.830;2023-08-06T01:55:19;97180.75;;;14.45;100.00
81319;BME280;70784;48.420;14.830;2023-08-06T01:58:04;97169.69;;;14.42;100.00
81319;BME280;70784;48.420;14.830;2023-08-06T02:00:48;97166.66;;;14.46;100.00
81319;BME280;70784;48.420;14.830;2023-08-06T02:03:36;97171.28;;;14.43;100.00
81319;BME280;70784;48.420;14.830;2023-08-06T02:06:21;97167.69;;;14.45;100.00
81319;BME280;70784;48.420;14.830;2023-08-06T02:09:09;97165.66;;;14.47;100.00
81319;BME280;70784;48.420;14.830;2023-08-06T02:11:53;97164.25;;;14.51;100.00
81319;BME280;70784;48.420;14.830;2023-08-06T02:14:38;97163.25;;;14.52;100.00
81319;BME280;70784;48.420;14.830;2023-08-06T02:17:22;97165.06;;;14.51;100.00
81319;BME280;70784;48.420;14.830;2023-08-06T02:20:08;97159.00;;;14.51;100.00
81319;BME280;70784;48.420;14.830;2023-08-06T02:23:03;97166.06;;;14.50;100.00
81319;BME280;70784;48.420;14.830;2023-08-06T02:26:03;97158.41;;;14.49;100.00
81319;BME280;70784;48.420;14.830;2023-08-06T02:29:01;97156.41;;;14.51;100.00
81319;BME280;70784;48.420;14.830;2023-08-06T02:31:47;97158.03;;;14.45;100.00
81319;BME280;70784;48.420;14.830;2023-08-06T02:34:38;97155.59;;;14.43;100.00
81319;BME280;70784;48.420;14.830;2023-08-06T02:37:25;97151.75;;;14.39;100.00
81319;BME280;70784;48.420;14.830;2023-08-06T02:40:12;97145.94;;;14.37;100.00
81319;BME280;70784;48.420;14.830;2023-08-06T02:43:00;97148.53;;;14.37;100.00
81319;BME280;70784;48.420;14.830;2023-08-06T02:45:46;97147.56;;;14.38;100.00
81319;BME280;70784;48.420;14.830;2023-08-06T02:48:31;97147.75;;;14.30;100.00
81319;BME280;70784;48.420;14.830;2023-08-06T02:51:16;97145.50;;;14.34;100.00
81319;BME280;70784;48.420;14.830;2023-08-06T02:54:00;97148.72;;;14.36;100.00
81319;BME280;70784;48.420;14.830;2023-08-06T02:56:46;97145.13;;;14.37;100.00
81319;BME280;70784;48.420;14.830;2023-08-06T02:59:37;97139.47;;;14.33;100.00
81319;BME280;70784;48.420;14.830;2023-08-06T03:02:22;97141.91;;;14.35;100.00
81319;BME280;70784;48.420;14.830;2023-08-06T03:05:09;97137.66;;;14.34;100.00
81319;BME280;70784;48.420;14.830;2023-08-06T03:07:58;97134.44;;;14.32;100.00
81319;BME280;70784;48.420;14.830;2023-08-06T03:10:43;97129.84;;;14.27;100.00
81319;BME280;70784;48.420;14.830;2023-08-06T03:13:28;97140.09;;;14.29;100.00
81319;BME280;70784;48.420;14.830;2023-08-06T03:16:14;97132.63;;;14.26;100.00
81319;BME280;70784;48.420;14.830;2023-08-06T03:19:02;97137.88;;;14.32;100.00
81319;BME280;70784;48.420;14.830;2023-08-06T03:21:50;97132.44;;;14.34;100.00
81319;BME280;70784;48.420;14.830;2023-08-06T03:24:35;97138.66;;;14.33;100.00
81319;BME280;70784;48.420;14.830;2023-08-06T03:27:21;97137.28;;;14.37;100.00
81319;BME280;70784;48.420;14.830;2023-08-06T03:30:07;97139.47;;;14.33;100.00
81319;BME280;70784;48.420;14.830;2023-08-06T03:32:53;97136.88;;;14.27;100.00
81319;BME280;70784;48.420;14.830;2023-08-06T03:35:38;97135.47;;;14.31;100.00
81319;BME280;70784;48.420;14.830;2023-08-06T03:38:28;97136.84;;;14.33;100.00
81319;BME280;70784;48.420;14.830;2023-08-06T03:41:19;97137.06;;;14.32;100.00
81319;BME280;70784;48.420;14.830;2023-08-06T03:44:04;97136.25;;;14.31;100.00
81319;BME280;70784;48.420;14.830;2023-08-06T03:46:50;97131.81;;;14.32;100.00
81319;BME280;70784;48.420;14.830;2023-08-06T03:49:35;97127.41;;;14.32;100.00
81319;BME280;70784;48.420;14.830;2023-08-06T03:52:21;97129.81;;;14.34;100.00
81319;BME280;70784;48.420;14.830;2023-08-06T03:55:06;97133.06;;;14.36;100.00
81319;BME280;70784;48.420;14.830;2023-08-06T03:57:56;97120.78;;;14.30;100.00
81319;BME280;70784;48.420;14.830;2023-08-06T04:00:41;97131.03;;;14.31;100.00
81319;BME280;70784;48.420;14.830;2023-08-06T04:03:34;97119.78;;;14.37;100.00
81319;BME280;70784;48.420;14.830;2023-08-06T04:06:27;97126.22;;;14.41;100.00
81319;BME280;70784;48.420;14.830;2023-08-06T04:09:12;97131.03;;;14.38;100.00
81319;BME280;70784;48.420;14.830;2023-08-06T04:11:58;97141.50;;;14.38;100.00
81319;BME280;70784;48.420;14.830;2023-08-06T04:14:51;97132.44;;;14.34;100.00
81319;BME280;70784;48.420;14.830;2023-08-06T04:17:43;97140.09;;;14.22;100.00
81319;BME280;70784;48.420;14.830;2023-08-06T04:20:29;97136.25;;;14.18;100.00
81319;BME280;70784;48.420;14.830;2023-08-06T04:23:14;97128.81;;;14.09;100.00
81319;BME280;70784;48.420;14.830;2023-08-06T04:25:59;97130.19;;;13.98;100.00
81319;BME280;70784;48.420;14.830;2023-08-06T04:28:46;97137.03;;;13.92;100.00
81319;BME280;70784;48.420;14.830;2023-08-06T04:31:35;97148.28;;;13.93;100.00
81319;BME280;70784;48.420;14.830;2023-08-06T04:34:20;97142.06;;;13.87;100.00
81319;BME280;70784;48.420;14.830;2023-08-06T04:37:05;97144.25;;;13.90;100.00
81319;BME280;70784;48.420;14.830;2023-08-06T04:39:51;97156.72;;;13.82;100.00
81319;BME280;70784;48.420;14.830;2023-08-06T04:42:36;97153.50;;;13.80;100.00
81319;BME280;70784;48.420;14.830;2023-08-06T04:45:21;97146.44;;;13.74;100.00
81319;BME280;70784;48.420;14.830;2023-08-06T04:48:09;97144.06;;;13.72;100.00
81319;BME280;70784;48.420;14.830;2023-08-06T04:50:54;97145.06;;;13.78;100.00
81319;BME280;70784;48.420;14.830;2023-08-06T04:53:39;97141.22;;;13.67;100.00
81319;BME280;70784;48.420;14.830;2023-08-06T04:56:24;97145.44;;;13.75;100.00
81319;BME280;70784;48.420;14.830;2023-08-06T04:59:11;97148.25;;;13.73;100.00
81319;BME280;70784;48.420;14.830;2023-08-06T05:01:56;97149.06;;;13.74;100.00
81319;BME280;70784;48.420;14.830;2023-08-06T05:04:42;97143.06;;;13.80;100.00
81319;BME280;70784;48.420;14.830;2023-08-06T05:07:30;97151.47;;;13.82;100.00
81319;BME280;70784;48.420;14.830;2023-08-06T05:10:16;97142.25;;;13.86;100.00
81319;BME280;70784;48.420;14.830;2023-08-06T05:13:03;97139.25;;;13.89;100.00
81319;BME280;70784;48.420;14.830;2023-08-06T05:15:53;97147.09;;;13.89;100.00
81319;BME280;70784;48.420;14.830;2023-08-06T05:18:38;97147.09;;;13.89;100.00
81319;BME280;70784;48.420;14.830;2023-08-06T05:21:24;97157.50;;;13.82;100.00
81319;BME280;70784;48.420;14.830;2023-08-06T05:24:09;97156.53;;;13.90;100.00
81319;BME280;70784;48.420;14.830;2023-08-06T05:26:54;97146.50;;;13.87;100.00
81319;BME280;70784;48.420;14.830;2023-08-06T05:29:41;97151.34;;;13.96;100.00
81319;BME280;70784;48.420;14.830;2023-08-06T05:32:29;97144.25;;;13.90;100.00
81319;BME280;70784;48.420;14.830;2023-08-06T05:35:15;97150.72;;;13.88;100.00
81319;BME280;70784;48.420;14.830;2023-08-06T05:38:01;97145.69;;;13.86;100.00
81319;BME280;70784;48.420;14.830;2023-08-06T05:40:50;97142.66;;;13.89;100.00
81319;BME280;70784;48.420;14.830;2023-08-06T05:43:40;97145.28;;;13.96;100.00
81319;BME280;70784;48.420;14.830;2023-08-06T05:46:25;97137.84;;;14.06;100.00
81319;BME280;70784;48.420;14.830;2023-08-06T05:49:16;97134.25;;;14.20;100.00
81319;BME280;70784;48.420;14.830;2023-08-06T05:52:01;97129.41;;;14.24;100.00
81319;BME280;70784;48.420;14.830;2023-08-06T05:54:50;97135.84;;;14.34;100.00
81319;BME280;70784;48.420;14.830;2023-08-06T05:57:35;97136.28;;;14.45;100.00
81319;BME280;70784;48.420;14.830;2023-08-06T06:00:21;97131.81;;;14.65;99.68
81319;BME280;70784;48.420;14.830;2023-08-06T06:03:07;97135.88;;;14.61;100.00
81319;BME280;70784;48.420;14.830;2023-08-06T06:05:52;97133.88;;;14.63;99.91
81319;BME280;70784;48.420;14.830;2023-08-06T06:08:38;97136.28;;;14.71;99.44
81319;BME280;70784;48.420;14.830;2023-08-06T06:11:23;97131.47;;;14.55;100.00
81319;BME280;70784;48.420;14.830;2023-08-06T06:14:12;97135.06;;;14.67;100.00
81319;BME280;70784;48.420;14.830;2023-08-06T06:16:56;97138.28;;;14.69;99.25
81319;BME280;70784;48.420;14.830;2023-08-06T06:19:44;97145.50;;;14.87;97.25
81319;BME280;70784;48.420;14.830;2023-08-06T06:22:29;97142.91;;;14.80;97.64
81319;BME280;70784;48.420;14.830;2023-08-06T06:25:17;97141.22;;;14.99;97.93
81319;BME280;70784;48.420;14.830;2023-08-06T06:28:03;97134.59;;;14.96;97.85
81319;BME280;70784;48.420;14.830;2023-08-06T06:30:48;97147.25;;;14.99;98.91
81319;BME280;70784;48.420;14.830;2023-08-06T06:33:33;97152.72;;;14.91;97.90
81319;BME280;70784;48.420;14.830;2023-08-06T06:36:24;97149.47;;;15.02;97.25
81319;BME280;70784;48.420;14.830;2023-08-06T06:39:10;97148.03;;;15.13;97.22
81319;BME280;70784;48.420;14.830;2023-08-06T06:42:06;97140.34;;;15.25;96.04
81319;BME280;70784;48.420;14.830;2023-08-06T06:44:54;97131.75;;;15.49;94.24
81319;BME280;70784;48.420;14.830;2023-08-06T06:47:39;97133.41;;;15.43;95.96
81319;BME280;70784;48.420;14.830;2023-08-06T06:50:24;97130.97;;;15.48;95.28
81319;BME280;70784;48.420;14.830;2023-08-06T06:53:11;97126.50;;;15.62;94.22
81319;BME280;70784;48.420;14.830;2023-08-06T06:56:03;97128.28;;;15.68;94.67
81319;BME280;70784;48.420;14.830;2023-08-06T06:58:49;97138.25;;;15.84;92.56
81319;BME280;70784;48.420;14.830;2023-08-06T07:01:35;97143.25;;;15.61;93.81
81319;BME280;70784;48.420;14.830;2023-08-06T07:04:20;97146.91;;;15.53;94.49
81319;BME280;70784;48.420;14.830;2023-08-06T07:07:05;97142.47;;;15.41;93.50
81319;BME280;70784;48.420;14.830;2023-08-06T07:09:55;97148.41;;;15.74;93.46
81319;BME280;70784;48.420;14.830;2023-08-06T07:12:40;97150.44;;;15.66;95.54
81319;BME280;70784;48.420;14.830;2023-08-06T07:15:25;97147.59;;;15.74;92.80
81319;BME280;70784;48.420;14.830;2023-08-06T07:18:10;97151.75;;;15.43;95.91
81319;BME280;70784;48.420;14.830;2023-08-06T07:20:54;97145.56;;;15.25;95.63
81319;BME280;70784;48.420;14.830;2023-08-06T07:23:39;97156.91;;;15.12;97.04
81319;BME280;70784;48.420;14.830;2023-08-06T07:26:24;97150.06;;;15.11;98.68
81319;BME280;70784;48.420;14.830;2023-08-06T07:29:08;97158.97;;;14.97;98.49
81319;BME280;70784;48.420;14.830;2023-08-06T07:31:53;97152.75;;;14.78;98.21
81319;BME280;70784;48.420;14.830;2023-08-06T07:34:37;97160.44;;;14.53;99.95
81319;BME280;70784;48.420;14.830;2023-08-06T07:37:22;97144.94;;;14.45;100.00
81319;BME280;70784;48.420;14.830;2023-08-06T07:40:07;97144.75;;;14.47;100.00
81319;BME280;70784;48.420;14.830;2023-08-06T07:42:52;97151.19;;;14.44;100.00
81319;BME280;70784;48.420;14.830;2023-08-06T07:45:37;97150.78;;;14.54;100.00
81319;BME280;70784;48.420;14.830;2023-08-06T07:48:23;97153.59;;;14.46;100.00
81319;BME280;70784;48.420;14.830;2023-08-06T07:51:07;97145.94;;;14.57;100.00
81319;BME280;70784;48.420;14.830;2023-08-06T07:53:51;97152.75;;;14.65;100.00
81319;BME280;70784;48.420;14.830;2023-08-06T07:56:36;97153.16;;;14.88;100.00
81319;BME280;70784;48.420;14.830;2023-08-06T07:59:21;97165.22;;;14.82;100.00
81319;BME280;70784;48.420;14.830;2023-08-06T08:02:06;97162.81;;;14.88;99.25
81319;BME280;70784;48.420;14.830;2023-08-06T08:04:51;97158.31;;;15.08;99.45
81319;BME280;70784;48.420;14.830;2023-08-06T08:07:35;97152.91;;;14.90;98.09
81319;BME280;70784;48.420;14.830;2023-08-06T08:10:19;97152.13;;;14.96;98.22
81319;BME280;70784;48.420;14.830;2023-08-06T08:13:04;97153.94;;;14.95;98.11
81319;BME280;70784;48.420;14.830;2023-08-06T08:15:49;97150.66;;;15.06;96.78
81319;BME280;70784;48.420;14.830;2023-08-06T08:18:35;97137.66;;;14.73;97.08
81319;BME280;70784;48.420;14.830;2023-08-06T08:21:19;97142.09;;;14.79;96.83
81319;BME280;70784;48.420;14.830;2023-08-06T08:24:04;97148.31;;;14.85;97.46
81319;BME280;70784;48.420;14.830;2023-08-06T08:26:52;97147.91;;;14.75;94.67
81319;BME280;70784;48.420;14.830;2023-08-06T08:29:37;97128.41;;;14.71;96.02
81319;BME280;70784;48.420;14.830;2023-08-06T08:32:21;97131.38;;;14.94;96.98
81319;BME280;70784;48.420;14.830;2023-08-06T08:35:06;97138.41;;;15.00;94.72
81319;BME280;70784;48.420;14.830;2023-08-06T08:37:53;97133.00;;;14.95;95.54
81319;BME280;70784;48.420;14.830;2023-08-06T08:40:45;97131.00;;;14.84;96.51
81319;BME280;70784;48.420;14.830;2023-08-06T08:43:31;97133.41;;;14.86;96.70
81319;BME280;70784;48.420;14.830;2023-08-06T08:46:17;97126.59;;;14.65;98.02
81319;BME280;70784;48.420;14.830;2023-08-06T08:49:03;97121.38;;;14.65;98.25
81319;BME280;70784;48.420;14.830;2023-08-06T08:51:48;97119.13;;;14.81;97.67
81319;BME280;70784;48.420;14.830;2023-08-06T08:54:34;97116.47;;;15.01;97.10
81319;BME280;70784;48.420;14.830;2023-08-06T08:57:20;97116.19;;;15.23;95.80
81319;BME280;70784;48.420;14.830;2023-08-06T09:00:05;97121.59;;;15.28;95.12
81319;BME280;70784;48.420;14.830;2023-08-06T09:02:50;97114.59;;;15.22;95.76
81319;BME280;70784;48.420;14.830;2023-08-06T09:05:36;97099.75;;;15.47;94.68
81319;BME280;70784;48.420;14.830;2023-08-06T09:08:30;97100.41;;;15.80;93.17
81319;BME280;70784;48.420;14.830;2023-08-06T09:11:18;97098.91;;;16.16;92.70
81319;BME280;70784;48.420;14.830;2023-08-06T09:14:06;97101.69;;;16.46;90.48
81319;BME280;70784;48.420;14.830;2023-08-06T09:16:52;97095.72;;;16.14;91.59
81319;BME280;70784;48.420;14.830;2023-08-06T09:19:37;97088.41;;;16.16;92.13
81319;BME280;70784;48.420;14.830;2023-08-06T09:22:23;97095.22;;;16.48;92.17
81319;BME280;70784;48.420;14.830;2023-08-06T09:25:07;97090.22;;;16.22;94.91
81319;BME280;70784;48.420;14.830;2023-08-06T09:27:55;97095.38;;;16.53;92.49
81319;BME280;70784;48.420;14.830;2023-08-06T09:30:39;97097.84;;;16.48;93.49
81319;BME280;70784;48.420;14.830;2023-08-06T09:33:23;97100.31;;;16.86;90.92
81319;BME280;70784;48.420;14.830;2023-08-06T09:36:10;97088.53;;;17.73;88.33
81319;BME280;70784;48.420;14.830;2023-08-06T09:38:55;97077.19;;;16.95;88.88
81319;BME280;70784;48.420;14.830;2023-08-06T09:41:39;97082.56;;;17.00;89.70
81319;BME280;70784;48.420;14.830;2023-08-06T09:44:25;97072.22;;;16.87;88.13
81319;BME280;70784;48.420;14.830;2023-08-06T09:47:09;97073.34;;;16.97;89.70
81319;BME280;70784;48.420;14.830;2023-08-06T09:49:59;97060.84;;;16.93;87.96
81319;BME280;70784;48.420;14.830;2023-08-06T09:52:43;97059.88;;;17.54;84.44
81319;BME280;70784;48.420;14.830;2023-08-06T09:55:28;97065.44;;;17.45;83.79
81319;BME280;70784;48.420;14.830;2023-08-06T09:58:12;97061.50;;;17.96;80.58
81319;BME280;70784;48.420;14.830;2023-08-06T10:01:02;97056.94;;;18.15;79.75
81319;BME280;70784;48.420;14.830;2023-08-06T10:03:47;97061.50;;;18.19;79.60
81319;BME280;70784;48.420;14.830;2023-08-06T10:06:35;97055.13;;;18.15;78.82
81319;BME280;70784;48.420;14.830;2023-08-06T10:09:20;97064.00;;;18.96;79.79
81319;BME280;70784;48.420;14.830;2023-08-06T10:12:06;97068.81;;;18.99;78.02
81319;BME280;70784;48.420;14.830;2023-08-06T10:14:50;97049.03;;;18.50;79.00
81319;BME280;70784;48.420;14.830;2023-08-06T10:17:38;97064.38;;;18.88;77.72
81319;BME280;70784;48.420;14.830;2023-08-06T10:20:23;97053.91;;;18.93;78.01
81319;BME280;70784;48.420;14.830;2023-08-06T10:23:08;97057.84;;;18.55;80.16
81319;BME280;70784;48.420;14.830;2023-08-06T10:25:53;97062.09;;;18.68;79.80
81319;BME280;70784;48.420;14.830;2023-08-06T10:28:40;97065.31;;;18.70;79.17
81319;BME280;70784;48.420;14.830;2023-08-06T10:31:54;97063.56;;;18.29;81.29
81319;BME280;70784;48.420;14.830;2023-08-06T10:34:56;97046.66;;;18.13;79.53
81319;BME280;70784;48.420;14.830;2023-08-06T10:37:44;97047.00;;;18.29;77.39
81319;BME280;70784;48.420;14.830;2023-08-06T10:40:29;97036.00;;;18.08;75.08
81319;BME280;70784;48.420;14.830;2023-08-06T10:43:33;97037.94;;;18.48;75.47
81319;BME280;70784;48.420;14.830;2023-08-06T10:46:23;97047.75;;;17.53;78.93
81319;BME280;70784;48.420;14.830;2023-08-06T10:49:07;97052.28;;;16.43;87.45
81319;BME280;70784;48.420;14.830;2023-08-06T10:51:52;97057.34;;;16.19;87.26
81319;BME280;70784;48.420;14.830;2023-08-06T10:54:38;97051.78;;;16.52;86.99
81319;BME280;70784;48.420;14.830;2023-08-06T10:57:23;97048.44;;;17.60;83.81
81319;BME280;70784;48.420;14.830;2023-08-06T11:00:08;97051.22;;;18.06;80.96
81319;BME280;70784;48.420;14.830;2023-08-06T11:02:53;61070.22;;;-143.05;100.00
81319;BME280;70784;48.420;14.830;2023-08-06T11:05:39;61070.22;;;-143.05;100.00
81319;BME280;70784;48.420;14.830;2023-08-06T11:08:27;61070.22;;;-143.05;100.00
81319;BME280;70784;48.420;14.830;2023-08-06T11:11:16;61070.22;;;-143.05;100.00
81319;BME280;70784;48.420;14.830;2023-08-06T11:14:01;61070.22;;;-143.05;100.00
81319;BME280;70784;48.420;14.830;2023-08-06T11:16:46;61070.22;;;-143.05;100.00
81319;BME280;70784;48.420;14.830;2023-08-06T11:19:31;61070.22;;;-143.05;100.00
81319;BME280;70784;48.420;14.830;2023-08-06T11:22:16;61070.22;;;-143.05;100.00
81319;BME280;70784;48.420;14.830;2023-08-06T11:25:00;61070.22;;;-143.05;100.00
81319;BME280;70784;48.420;14.830;2023-08-06T11:27:45;61070.22;;;-143.05;100.00
81319;BME280;70784;48.420;14.830;2023-08-06T11:30:30;61070.22;;;-143.05;100.00
81319;BME280;70784;48.420;14.830;2023-08-06T11:33:25;61070.22;;;-143.05;100.00
81319;BME280;70784;48.420;14.830;2023-08-06T11:36:10;61070.22;;;-143.05;100.00
81319;BME280;70784;48.420;14.830;2023-08-06T11:38:55;61070.22;;;-143.05;100.00
81319;BME280;70784;48.420;14.830;2023-08-06T11:41:40;61070.22;;;-143.05;100.00
81319;BME280;70784;48.420;14.830;2023-08-06T11:44:30;61070.22;;;-143.05;100.00
81319;BME280;70784;48.420;14.830;2023-08-06T11:47:17;61070.22;;;-143.05;100.00
81319;BME280;70784;48.420;14.830;2023-08-06T11:50:02;61070.22;;;-143.05;100.00
81319;BME280;70784;48.420;14.830;2023-08-06T11:52:53;61070.22;;;-143.05;100.00
81319;BME280;70784;48.420;14.830;2023-08-06T11:55:38;61070.22;;;-143.05;100.00
81319;BME280;70784;48.420;14.830;2023-08-06T11:58:23;61070.22;;;-143.05;100.00
81319;BME280;70784;48.420;14.830;2023-08-06T12:01:08;61070.22;;;-143.05;100.00
81319;BME280;70784;48.420;14.830;2023-08-06T12:03:52;61070.22;;;-143.05;100.00
81319;BME280;70784;48.420;14.830;2023-08-06T12:06:42;61070.22;;;-143.05;100.00
81319;BME280;70784;48.420;14.830;2023-08-06T12:09:28;61070.22;;;-143.05;100.00
81319;BME280;70784;48.420;14.830;2023-08-06T12:12:12;61070.22;;;-143.05;100.00
81319;BME280;70784;48.420;14.830;2023-08-06T12:14:57;61070.22;;;-143.05;100.00
81319;BME280;70784;48.420;14.830;2023-08-06T12:17:42;61070.22;;;-143.05;100.00
81319;BME280;70784;48.420;14.830;2023-08-06T12:20:26;61070.22;;;-143.05;100.00
81319;BME280;70784;48.420;14.830;2023-08-06T12:23:12;61070.22;;;-143.05;100.00
81319;BME280;70784;48.420;14.830;2023-08-06T12:25:59;61070.22;;;-143.05;100.00
81319;BME280;70784;48.420;14.830;2023-08-06T12:28:44;61070.22;;;-143.05;100.00
81319;BME280;70784;48.420;14.830;2023-08-06T12:31:29;61070.22;;;-143.05;100.00
81319;BME280;70784;48.420;14.830;2023-08-06T12:34:13;61070.22;;;-143.05;100.00
81319;BME280;70784;48.420;14.830;2023-08-06T12:36:58;61070.22;;;-143.05;100.00
81319;BME280;70784;48.420;14.830;2023-08-06T12:39:42;61070.22;;;-143.05;100.00
81319;BME280;70784;48.420;14.830;2023-08-06T12:42:27;61070.22;;;-143.05;100.00
81319;BME280;70784;48.420;14.830;2023-08-06T12:45:11;61070.22;;;-143.05;100.00
81319;BME280;70784;48.420;14.830;2023-08-06T12:47:56;61070.22;;;-143.05;100.00
81319;BME280;70784;48.420;14.830;2023-08-06T12:50:40;61070.22;;;-143.05;100.00
81319;BME280;70784;48.420;14.830;2023-08-06T12:53:25;61070.22;;;-143.05;100.00
81319;BME280;70784;48.420;14.830;2023-08-06T12:56:09;61070.22;;;-143.05;100.00
81319;BME280;70784;48.420;14.830;2023-08-06T12:58:53;61070.22;;;-143.05;100.00
81319;BME280;70784;48.420;14.830;2023-08-06T13:01:38;61070.22;;;-143.05;100.00
81319;BME280;70784;48.420;14.830;2023-08-06T13:04:22;61070.22;;;-143.05;100.00
81319;BME280;70784;48.420;14.830;2023-08-06T13:07:07;61070.22;;;-143.05;100.00
81319;BME280;70784;48.420;14.830;2023-08-06T13:09:51;61070.22;;;-143.05;100.00
81319;BME280;70784;48.420;14.830;2023-08-06T13:12:36;61070.22;;;-143.05;100.00
81319;BME280;70784;48.420;14.830;2023-08-06T13:15:21;61070.22;;;-143.05;100.00
81319;BME280;70784;48.420;14.830;2023-08-06T13:18:06;61070.22;;;-143.05;100.00
81319;BME280;70784;48.420;14.830;2023-08-06T13:20:53;61070.22;;;-143.05;100.00
81319;BME280;70784;48.420;14.830;2023-08-06T13:23:38;61070.22;;;-143.05;100.00
81319;BME280;70784;48.420;14.830;2023-08-06T13:26:22;61070.22;;;-143.05;100.00
81319;BME280;70784;48.420;14.830;2023-08-06T13:29:07;61070.22;;;-143.05;100.00
81319;BME280;70784;48.420;14.830;2023-08-06T13:31:53;61070.22;;;-143.05;100.00
81319;BME280;70784;48.420;14.830;2023-08-06T13:34:38;61070.22;;;-143.05;100.00
81319;BME280;70784;48.420;14.830;2023-08-06T13:37:23;61070.22;;;-143.05;100.00
81319;BME280;70784;48.420;14.830;2023-08-06T13:40:08;61070.22;;;-143.05;100.00
81319;BME280;70784;48.420;14.830;2023-08-06T13:42:53;61070.22;;;-143.05;100.00
81319;BME280;70784;48.420;14.830;2023-08-06T13:45:37;61070.22;;;-143.05;100.00
81319;BME280;70784;48.420;14.830;2023-08-06T13:48:22;61070.22;;;-143.05;100.00
81319;BME280;70784;48.420;14.830;2023-08-06T13:51:07;61070.22;;;-143.05;100.00
81319;BME280;70784;48.420;14.830;2023-08-06T13:53:52;61070.22;;;-143.05;100.00
81319;BME280;70784;48.420;14.830;2023-08-06T13:56:38;61070.22;;;-143.05;100.00
81319;BME280;70784;48.420;14.830;2023-08-06T13:59:23;61070.22;;;-143.05;100.00
81319;BME280;70784;48.420;14.830;2023-08-06T14:02:08;61070.22;;;-143.05;100.00
81319;BME280;70784;48.420;14.830;2023-08-06T14:04:53;61070.22;;;-143.05;100.00
81319;BME280;70784;48.420;14.830;2023-08-06T14:07:37;61070.22;;;-143.05;100.00
81319;BME280;70784;48.420;14.830;2023-08-06T14:10:22;61070.22;;;-143.05;100.00
81319;BME280;70784;48.420;14.830;2023-08-06T14:13:06;61070.22;;;-143.05;100.00
81319;BME280;70784;48.420;14.830;2023-08-06T14:15:51;61070.22;;;-143.05;100.00
81319;BME280;70784;48.420;14.830;2023-08-06T14:18:35;61070.22;;;-143.05;100.00
81319;BME280;70784;48.420;14.830;2023-08-06T14:21:22;61070.22;;;-143.05;100.00